Time;durP1;ratioP1;P1;durP2;ratioP2;P2;SDS_P1;SDS_P2;PMS_P1;PMS_P2;Temp;Humidity;BMP_temperature;BMP_pressure;BME280_temperature;BME280_humidity;BME280_pressure;Samples;Min_cycle;Max_cycle;Signal;HPM_P1;HPM_P2
2021/09/05 00:02:18;;;;;;;0.70;0.70;;;14.30;99.90;;;;;;5031423;28;20404;-74
2021/09/05 00:04:44;;;;;;;0.20;0.20;;;14.30;99.90;;;;;;5031383;28;20030;-74
2021/09/05 00:07:09;;;;;;;0.10;0.10;;;14.40;99.90;;;;;;5013660;28;20021;-74
2021/09/05 00:09:35;;;;;;;0.10;0.10;;;14.30;99.90;;;;;;5013603;28;20026;-74
2021/09/05 00:12:02;;;;;;;0.10;0.10;;;14.40;99.90;;;;;;5013492;28;20430;-74
2021/09/05 00:14:28;;;;;;;0.45;0.45;;;14.40;99.90;;;;;;5031452;28;20097;-74
2021/09/05 00:16:54;;;;;;;0.13;0.13;;;14.40;99.90;;;;;;5031318;28;20101;-74
2021/09/05 00:19:19;;;;;;;1.65;1.35;;;14.50;99.90;;;;;;5013561;28;20445;-74
2021/09/05 00:21:46;;;;;;;0.30;0.30;;;14.40;99.90;;;;;;5017084;28;20030;-74
2021/09/05 00:24:11;;;;;;;1.88;0.70;;;14.40;99.90;;;;;;5034883;28;20033;-74
2021/09/05 00:26:37;;;;;;;0.30;0.30;;;14.40;99.90;;;;;;5034841;28;20108;-74
2021/09/05 00:29:03;;;;;;;0.30;0.30;;;14.30;99.90;;;;;;5034758;28;20071;-74
2021/09/05 00:31:29;;;;;;;0.20;0.20;;;14.30;99.90;;;;;;5034744;28;20037;-74
2021/09/05 00:33:58;;;;;;;0.30;0.30;;;14.30;99.90;;;;;;5016994;28;20557;-74
2021/09/05 00:36:24;;;;;;;0.20;0.20;;;14.20;99.90;;;;;;5016862;28;20071;-74
2021/09/05 00:38:50;;;;;;;0.50;0.50;;;14.30;99.90;;;;;;5000498;28;20029;-74
2021/09/05 00:41:16;;;;;;;0.20;0.20;;;14.40;99.90;;;;;;5000739;28;20108;-74
2021/09/05 00:44:05;;;;;;;0.47;0.47;;;14.40;99.90;;;;;;5016771;28;20048;-74
2021/09/05 00:46:31;;;;;;;0.28;0.28;;;14.40;99.90;;;;;;5016717;28;20197;-74
2021/09/05 00:48:57;;;;;;;0.20;0.20;;;14.30;99.90;;;;;;5034332;28;20021;-74
2021/09/05 00:51:31;;;;;;;0.40;0.40;;;14.40;99.90;;;;;;5034276;28;20022;-74
2021/09/05 00:54:02;;;;;;;0.20;0.20;;;14.40;99.90;;;;;;5016726;28;20481;-75
2021/09/05 00:56:33;;;;;;;0.10;0.10;;;14.40;99.90;;;;;;5000407;28;20427;-74
2021/09/05 00:59:07;;;;;;;0.17;0.17;;;14.40;99.90;;;;;;5034134;28;20034;-74
2021/09/05 01:01:35;;;;;;;0.20;0.20;;;14.40;99.90;;;;;;5034302;28;20021;-74
2021/09/05 01:04:01;;;;;;;0.10;0.10;;;14.40;99.90;;;;;;5034248;28;20017;-73
2021/09/05 01:06:27;;;;;;;0.10;0.10;;;14.30;99.90;;;;;;5034091;28;20389;-74
2021/09/05 01:08:53;;;;;;;0.10;0.10;;;14.30;99.90;;;;;;5016083;28;20033;-74
2021/09/05 01:11:20;;;;;;;0.10;0.10;;;14.30;99.90;;;;;;4999969;28;20033;-74
2021/09/05 01:13:46;;;;;;;0.20;0.20;;;14.30;99.90;;;;;;4999986;28;20052;-74
2021/09/05 01:16:24;;;;;;;0.17;0.17;;;14.20;99.90;;;;;;5033999;28;20097;-74
2021/09/05 01:18:50;;;;;;;0.30;0.30;;;14.20;99.90;;;;;;5016209;28;20026;-74
2021/09/05 01:21:15;;;;;;;0.20;0.20;;;14.10;99.90;;;;;;5016303;28;20021;-74
2021/09/05 01:23:41;;;;;;;0.85;0.85;;;14.10;99.90;;;;;;5033932;28;20056;-74
2021/09/05 01:26:08;;;;;;;0.30;0.30;;;14.00;99.90;;;;;;5033891;28;20030;-74
2021/09/05 01:28:34;;;;;;;0.20;0.20;;;14.00;99.90;;;;;;5016084;28;20014;-74
2021/09/05 01:30:59;;;;;;;0.30;0.30;;;13.80;99.90;;;;;;5015869;28;20386;-74
2021/09/05 01:33:25;;;;;;;0.20;0.20;;;13.90;99.90;;;;;;5015883;28;20029;-74
2021/09/05 01:35:51;;;;;;;0.20;0.20;;;13.80;99.90;;;;;;5015914;28;20470;-74
2021/09/05 01:38:17;;;;;;;0.22;0.22;;;13.70;99.90;;;;;;5033450;28;20409;-74
2021/09/05 01:40:42;;;;;;;0.32;0.32;;;13.70;99.90;;;;;;5015912;28;20033;-74
2021/09/05 01:43:08;;;;;;;0.63;0.63;;;13.70;99.90;;;;;;5015825;28;20513;-74
2021/09/05 01:45:34;;;;;;;0.95;0.95;;;13.60;99.90;;;;;;5015916;28;20385;-74
2021/09/05 01:47:59;;;;;;;0.20;0.20;;;13.50;99.90;;;;;;5033307;28;20167;-74
2021/09/05 01:50:25;;;;;;;0.60;0.60;;;13.60;99.90;;;;;;5033398;28;20489;-74
2021/09/05 01:52:51;;;;;;;0.20;0.20;;;13.60;99.90;;;;;;5033322;28;20068;-74
2021/09/05 01:55:17;;;;;;;3.40;3.10;;;13.50;99.90;;;;;;5015476;28;20029;-74
2021/09/05 01:57:42;;;;;;;0.30;0.30;;;13.50;99.90;;;;;;4998981;28;20036;-74
2021/09/05 02:00:09;;;;;;;1.52;0.88;;;13.50;99.90;;;;;;4999264;28;20029;-74
2021/09/05 02:02:34;;;;;;;0.82;0.82;;;13.40;99.90;;;;;;5015605;28;20029;-74
2021/09/05 02:05:00;;;;;;;0.22;0.22;;;13.30;99.90;;;;;;5015532;28;20040;-74
2021/09/05 02:07:26;;;;;;;0.40;0.40;;;13.30;99.90;;;;;;5015286;28;20374;-74
2021/09/05 02:09:51;;;;;;;0.20;0.20;;;13.30;99.90;;;;;;5032940;28;20021;-74
2021/09/05 02:12:17;;;;;;;0.15;0.15;;;13.40;99.90;;;;;;5032858;28;20508;-74
2021/09/05 02:14:43;;;;;;;0.20;0.20;;;13.60;99.90;;;;;;5015161;28;20504;-74
2021/09/05 02:17:09;;;;;;;0.20;0.20;;;13.60;99.90;;;;;;5015370;28;20105;-74
2021/09/05 02:19:34;;;;;;;0.15;0.15;;;13.60;99.90;;;;;;5032755;28;20018;-74
2021/09/05 02:22:00;;;;;;;0.20;0.20;;;13.60;99.90;;;;;;5032887;28;20437;-74
2021/09/05 02:24:26;;;;;;;0.40;0.40;;;13.50;99.90;;;;;;5015211;28;20032;-74
2021/09/05 02:26:52;;;;;;;0.70;0.70;;;13.60;99.90;;;;;;5032608;28;20029;-74
2021/09/05 02:29:18;;;;;;;0.20;0.20;;;13.70;99.90;;;;;;5032574;28;20022;-74
2021/09/05 02:31:43;;;;;;;0.10;0.10;;;13.70;99.90;;;;;;5032585;28;20485;-74
2021/09/05 02:34:09;;;;;;;0.43;0.43;;;13.60;99.90;;;;;;5014847;28;20022;-74
2021/09/05 02:36:35;;;;;;;0.40;0.40;;;13.50;99.90;;;;;;5014732;28;20029;-74
2021/09/05 02:39:01;;;;;;;0.73;0.73;;;13.40;99.90;;;;;;5014676;28;20056;-74
2021/09/05 02:41:27;;;;;;;0.20;0.20;;;13.50;99.90;;;;;;4998456;28;20100;-74
2021/09/05 02:43:53;;;;;;;1.95;1.60;;;13.60;99.90;;;;;;5014045;28;20025;-74
2021/09/05 02:46:19;;;;;;;0.20;0.20;;;13.60;99.90;;;;;;5032386;28;20108;-74
2021/09/05 02:48:45;;;;;;;2.83;0.55;;;13.60;99.90;;;;;;5014413;28;20124;-74
2021/09/05 02:51:11;;;;;;;1.27;1.27;;;13.50;99.90;;;;;;5032298;28;20025;-74
2021/09/05 02:53:36;;;;;;;0.20;0.20;;;13.50;99.90;;;;;;5032173;28;20023;-74
2021/09/05 02:56:02;;;;;;;0.20;0.20;;;13.50;99.90;;;;;;5014605;28;20039;-75
2021/09/05 02:58:28;;;;;;;0.10;0.10;;;13.50;99.90;;;;;;5014459;28;20477;-74
2021/09/05 03:00:54;;;;;;;0.20;0.20;;;13.50;99.90;;;;;;4998160;28;20025;-74
2021/09/05 03:03:19;;;;;;;1.55;0.75;;;13.50;99.90;;;;;;5032160;28;20028;-74
2021/09/05 03:05:45;;;;;;;0.20;0.20;;;13.50;99.90;;;;;;4997983;28;20401;-74
2021/09/05 03:08:11;;;;;;;0.20;0.20;;;13.50;99.90;;;;;;4998043;28;20091;-75
2021/09/05 03:10:36;;;;;;;0.20;0.20;;;13.50;99.90;;;;;;5014273;28;20021;-74
2021/09/05 03:13:02;;;;;;;0.10;0.10;;;13.40;99.90;;;;;;5031916;28;20069;-74
2021/09/05 03:15:28;;;;;;;0.13;0.13;;;13.30;99.90;;;;;;5014257;28;20017;-74
2021/09/05 03:17:54;;;;;;;0.20;0.20;;;13.30;99.90;;;;;;5014032;28;20385;-74
2021/09/05 03:20:20;;;;;;;0.20;0.20;;;13.30;99.90;;;;;;4997931;28;20018;-74
2021/09/05 03:22:45;;;;;;;0.20;0.20;;;13.20;99.90;;;;;;5014267;28;20040;-74
2021/09/05 03:25:11;;;;;;;0.20;0.20;;;13.30;99.90;;;;;;5014275;28;20025;-74
2021/09/05 03:27:37;;;;;;;0.20;0.20;;;13.50;99.90;;;;;;5031826;28;20025;-74
2021/09/05 03:30:05;;;;;;;0.20;0.20;;;13.50;99.90;;;;;;5014147;28;20071;-74
2021/09/05 03:32:31;;;;;;;0.10;0.10;;;13.50;99.90;;;;;;5014124;28;20033;-74
2021/09/05 03:34:57;;;;;;;0.20;0.20;;;13.60;99.90;;;;;;5013982;28;20021;-74
2021/09/05 03:37:22;;;;;;;0.57;0.57;;;13.60;99.90;;;;;;5031887;28;20026;-74
2021/09/05 03:39:48;;;;;;;0.25;0.25;;;13.60;99.90;;;;;;5031670;28;20029;-74
2021/09/05 03:42:14;;;;;;;0.20;0.20;;;13.50;99.90;;;;;;5031845;28;20025;-74
2021/09/05 03:44:39;;;;;;;0.50;0.50;;;13.30;99.90;;;;;;5014114;28;20122;-74
2021/09/05 03:47:05;;;;;;;9.63;0.50;;;13.20;99.90;;;;;;5013749;28;20022;-74
2021/09/05 03:49:31;;;;;;;0.20;0.20;;;13.00;99.90;;;;;;4997524;28;20025;-77
2021/09/05 03:51:58;;;;;;;0.20;0.20;;;13.00;99.90;;;;;;5031666;28;20079;-76
2021/09/05 03:54:23;;;;;;;0.45;0.45;;;12.90;99.90;;;;;;5015649;28;20100;-76
2021/09/05 03:56:49;;;;;;;0.20;0.20;;;12.90;99.90;;;;;;5001420;28;20492;-77
2021/09/05 03:59:15;;;;;;;0.20;0.20;;;12.90;99.90;;;;;;5035422;28;20053;-76
2021/09/05 04:01:41;;;;;;;0.20;0.20;;;13.00;99.90;;;;;;5035483;28;20381;-77
2021/09/05 04:04:07;;;;;;;0.20;0.20;;;13.00;99.90;;;;;;5017773;28;20112;-76
2021/09/05 04:06:33;;;;;;;0.82;0.82;;;12.80;99.90;;;;;;5017595;28;20029;-77
2021/09/05 04:09:08;;;;;;;11.00;2.38;;;12.80;99.90;;;;;;5035181;28;20396;-76
2021/09/05 04:11:35;;;;;;;1.15;0.73;;;12.80;99.90;;;;;;5035247;28;20021;-76
2021/09/05 04:14:01;;;;;;;0.20;0.20;;;12.80;99.90;;;;;;5017443;28;20420;-76
2021/09/05 04:16:26;;;;;;;0.98;0.63;;;12.80;99.90;;;;;;5035186;28;20013;-76
2021/09/05 04:18:52;;;;;;;0.30;0.30;;;12.80;99.90;;;;;;5017365;28;20037;-76
2021/09/05 04:21:19;;;;;;;0.20;0.20;;;12.90;99.90;;;;;;5035242;28;20022;-76
2021/09/05 04:23:45;;;;;;;0.75;0.75;;;12.80;99.90;;;;;;5000978;28;20029;-76
2021/09/05 04:26:10;;;;;;;0.65;0.65;;;12.80;99.90;;;;;;5017161;28;20029;-76
2021/09/05 04:28:36;;;;;;;0.20;0.20;;;12.80;99.90;;;;;;5016715;28;20018;-76
2021/09/05 04:31:02;;;;;;;0.20;0.20;;;12.90;99.90;;;;;;5034970;28;20017;-76
2021/09/05 04:33:28;;;;;;;0.90;0.45;;;12.90;99.90;;;;;;5034856;28;20083;-74
2021/09/05 04:35:54;;;;;;;0.10;0.10;;;12.90;99.90;;;;;;5034869;28;20029;-74
2021/09/05 04:38:19;;;;;;;0.38;0.38;;;12.80;99.90;;;;;;5034290;28;20100;-74
2021/09/05 04:40:45;;;;;;;0.30;0.30;;;12.90;99.90;;;;;;5034836;28;20152;-74
2021/09/05 04:43:11;;;;;;;0.17;0.17;;;12.70;99.90;;;;;;5034717;28;20079;-74
2021/09/05 04:45:36;;;;;;;0.20;0.20;;;12.60;99.90;;;;;;5016780;28;20057;-74
2021/09/05 04:48:02;;;;;;;0.15;0.15;;;12.60;99.90;;;;;;5016804;28;20532;-74
2021/09/05 04:50:28;;;;;;;0.57;0.57;;;12.50;99.90;;;;;;5016911;28;20083;-74
2021/09/05 04:52:54;;;;;;;1.27;1.25;;;12.50;99.90;;;;;;5016853;28;20060;-74
2021/09/05 04:55:20;;;;;;;1.27;1.27;;;12.40;99.90;;;;;;5016834;28;20025;-74
2021/09/05 04:57:45;;;;;;;0.20;0.20;;;12.60;99.90;;;;;;5034507;28;20489;-74
2021/09/05 05:00:11;;;;;;;0.20;0.20;;;12.60;99.90;;;;;;5034370;28;20481;-74
2021/09/05 05:02:37;;;;;;;0.20;0.20;;;12.80;99.90;;;;;;5034435;28;20453;-74
2021/09/05 05:05:03;;;;;;;0.30;0.30;;;12.90;99.90;;;;;;5016233;28;20041;-74
2021/09/05 05:07:29;;;;;;;0.98;0.85;;;12.90;99.90;;;;;;5033972;28;20033;-74
2021/09/05 05:09:55;;;;;;;0.35;0.35;;;12.90;99.90;;;;;;5016245;28;20117;-74
2021/09/05 05:12:21;;;;;;;0.20;0.20;;;12.90;99.90;;;;;;5031737;28;20033;-74
2021/09/05 05:14:47;;;;;;;2.65;1.85;;;12.90;99.90;;;;;;5031788;28;20409;-74
2021/09/05 05:17:12;;;;;;;0.20;0.20;;;12.90;99.90;;;;;;5033999;28;20024;-74
2021/09/05 05:19:38;;;;;;;0.20;0.20;;;13.00;99.90;;;;;;5024918;28;20025;-75
2021/09/05 05:22:05;;;;;;;0.10;0.10;;;13.00;99.90;;;;;;5036135;28;20116;-74
2021/09/05 05:24:31;;;;;;;0.20;0.20;;;13.10;99.90;;;;;;5019501;28;20397;-74
2021/09/05 05:26:57;;;;;;;0.63;0.63;;;13.20;99.90;;;;;;5035781;28;20071;-74
2021/09/05 05:29:23;;;;;;;0.35;0.35;;;13.20;99.90;;;;;;5034549;28;20021;-74
2021/09/05 05:31:50;;;;;;;0.35;0.35;;;13.30;99.90;;;;;;5016022;28;20477;-74
2021/09/05 05:34:16;;;;;;;0.10;0.10;;;13.40;99.90;;;;;;5015737;28;20017;-74
2021/09/05 05:36:41;;;;;;;0.17;0.17;;;13.40;99.90;;;;;;5033445;28;20393;-74
2021/09/05 05:39:07;;;;;;;0.10;0.10;;;13.60;99.90;;;;;;4999381;28;20026;-74
2021/09/05 05:41:33;;;;;;;3.47;3.22;;;13.80;99.90;;;;;;5015908;28;20135;-74
2021/09/05 05:43:58;;;;;;;0.20;0.20;;;13.90;99.90;;;;;;5015887;28;20032;-74
2021/09/05 05:46:24;;;;;;;0.20;0.20;;;14.00;99.90;;;;;;5033462;28;20501;-74
2021/09/05 05:48:50;;;;;;;0.20;0.20;;;14.00;99.90;;;;;;5015530;28;20029;-74
2021/09/05 05:51:16;;;;;;;0.30;0.30;;;13.90;99.90;;;;;;5015789;28;20022;-74
2021/09/05 05:53:41;;;;;;;0.20;0.20;;;13.90;99.90;;;;;;5033306;28;20025;-74
2021/09/05 05:56:07;;;;;;;0.20;0.20;;;14.00;99.90;;;;;;5033229;28;20022;-74
2021/09/05 05:58:33;;;;;;;0.57;0.57;;;14.20;99.90;;;;;;5031271;28;20024;-74
2021/09/05 06:00:59;;;;;;;0.30;0.30;;;14.30;99.90;;;;;;5013708;28;20021;-74
2021/09/05 06:03:24;;;;;;;0.20;0.20;;;14.30;99.90;;;;;;5035540;28;20017;-74
2021/09/05 06:05:50;;;;;;;0.35;0.28;;;14.40;99.90;;;;;;4999790;28;20022;-74
2021/09/05 06:08:16;;;;;;;0.50;0.47;;;14.30;99.90;;;;;;5010909;28;20029;-74
2021/09/05 06:10:42;;;;;;;0.75;0.65;;;14.20;99.90;;;;;;5051900;28;20795;-74
2021/09/05 06:13:08;;;;;;;0.20;0.20;;;14.10;99.90;;;;;;5034851;28;20072;-74
2021/09/05 06:15:34;;;;;;;0.77;0.75;;;14.30;99.90;;;;;;5046500;28;20333;-74
2021/09/05 06:17:59;;;;;;;0.20;0.20;;;14.30;99.90;;;;;;5035204;28;20017;-74
2021/09/05 06:20:25;;;;;;;0.10;0.10;;;14.50;99.90;;;;;;5032374;28;20032;-75
2021/09/05 06:22:51;;;;;;;0.10;0.10;;;14.70;99.90;;;;;;5015117;28;20024;-74
2021/09/05 06:25:17;;;;;;;0.10;0.10;;;14.80;99.90;;;;;;5015016;28;20029;-74
2021/09/05 06:27:43;;;;;;;0.20;0.20;;;15.00;99.90;;;;;;5032480;28;20036;-74
2021/09/05 06:30:09;;;;;;;0.50;0.50;;;15.10;99.90;;;;;;5033971;28;20017;-74
2021/09/05 06:32:35;;;;;;;0.93;0.85;;;15.20;99.90;;;;;;5024566;28;20388;-74
2021/09/05 06:35:01;;;;;;;0.20;0.20;;;15.20;99.90;;;;;;5024072;28;20108;-74
2021/09/05 06:37:27;;;;;;;0.20;0.20;;;15.20;99.90;;;;;;5052324;28;20032;-74
2021/09/05 06:39:53;;;;;;;0.63;0.63;;;15.40;99.90;;;;;;5037757;28;20461;-74
2021/09/05 06:42:18;;;;;;;0.10;0.10;;;15.50;99.90;;;;;;4998357;28;20030;-74
2021/09/05 06:44:44;;;;;;;0.10;0.10;;;15.60;99.90;;;;;;5014146;28;20021;-74
2021/09/05 06:47:10;;;;;;;0.10;0.10;;;15.70;99.90;;;;;;5018616;28;20029;-74
2021/09/05 06:49:36;;;;;;;0.10;0.10;;;15.80;99.90;;;;;;5052029;28;20029;-74
2021/09/05 06:52:03;;;;;;;0.10;0.10;;;15.80;99.90;;;;;;5016634;28;20029;-74
2021/09/05 06:54:28;;;;;;;0.10;0.10;;;15.90;99.90;;;;;;5032408;28;20558;-73
2021/09/05 06:56:54;;;;;;;0.20;0.20;;;16.00;99.90;;;;;;5031840;28;20096;-74
2021/09/05 06:59:20;;;;;;;0.10;0.10;;;16.20;99.90;;;;;;5032143;28;20029;-74
2021/09/05 07:01:46;;;;;;;0.10;0.10;;;16.30;99.90;;;;;;5032220;28;20030;-74
2021/09/05 07:04:12;;;;;;;0.20;0.20;;;16.40;99.90;;;;;;5032267;28;20032;-74
2021/09/05 07:06:38;;;;;;;0.10;0.10;;;16.50;99.90;;;;;;5014424;28;20053;-74
2021/09/05 07:09:04;;;;;;;0.10;0.10;;;16.60;99.90;;;;;;5014108;28;20071;-74
2021/09/05 07:11:29;;;;;;;0.10;0.10;;;16.70;99.90;;;;;;5031974;28;20064;-74
2021/09/05 07:13:55;;;;;;;0.10;0.10;;;16.80;99.90;;;;;;5014318;28;20076;-74
2021/09/05 07:16:21;;;;;;;0.10;0.10;;;16.90;99.90;;;;;;5014231;28;20028;-75
2021/09/05 07:18:47;;;;;;;0.10;0.10;;;17.00;99.90;;;;;;5031734;28;20490;-74
2021/09/05 07:21:12;;;;;;;0.63;0.63;;;17.00;99.90;;;;;;5031982;28;20029;-74
2021/09/05 07:23:38;;;;;;;0.20;0.20;;;17.10;99.90;;;;;;5032091;28;20358;-74
2021/09/05 07:26:04;;;;;;;0.10;0.10;;;17.20;99.90;;;;;;5014219;28;20036;-74
2021/09/05 07:28:35;;;;;;;0.10;0.10;;;17.20;99.90;;;;;;5031933;28;20025;-72
2021/09/05 07:31:02;;;;;;;0.10;0.10;;;17.20;99.90;;;;;;5036129;28;20026;-72
2021/09/05 07:33:28;;;;;;;0.10;0.10;;;17.20;99.90;;;;;;5001780;28;20428;-73
2021/09/05 07:35:54;;;;;;;0.40;0.40;;;17.40;99.90;;;;;;5035887;28;20018;-72
2021/09/05 07:38:19;;;;;;;0.10;0.10;;;17.60;99.90;;;;;;5035901;28;20025;-73
2021/09/05 07:40:46;;;;;;;0.20;0.20;;;17.70;99.90;;;;;;5018634;22;20165;-93
2021/09/05 07:43:11;;;;;;;0.10;0.10;;;17.80;99.90;;;;;;4998813;28;20407;-92
2021/09/05 07:45:37;;;;;;;0.10;0.10;;;17.80;99.90;;;;;;4999907;28;20030;-92
2021/09/05 07:48:03;;;;;;;0.10;0.10;;;17.90;99.90;;;;;;4999645;28;20042;-92
2021/09/05 07:50:29;;;;;;;0.32;0.32;;;17.90;99.90;;;;;;5002741;28;20030;-91
2021/09/05 07:52:55;;;;;;;0.20;0.20;;;18.00;99.90;;;;;;5000110;28;20025;-92
2021/09/05 07:55:20;;;;;;;0.10;0.10;;;18.10;99.90;;;;;;4999883;28;20057;-92
2021/09/05 07:57:46;;;;;;;0.20;0.20;;;18.20;99.90;;;;;;4999646;28;20105;-92
2021/09/05 08:00:12;;;;;;;0.10;0.10;;;18.20;99.90;;;;;;4999848;28;20229;-93
2021/09/05 08:02:40;;;;;;;0.10;0.10;;;18.40;99.90;;;;;;4999593;28;20104;-92
2021/09/05 08:05:08;;;;;;;0.10;0.10;;;18.50;99.90;;;;;;4999731;28;20030;-92
2021/09/05 08:07:34;;;;;;;0.10;0.10;;;18.80;99.90;;;;;;5000230;28;20487;-91
2021/09/05 08:10:00;;;;;;;0.10;0.10;;;18.90;99.90;;;;;;5015865;28;20030;-92
2021/09/05 08:12:25;;;;;;;0.10;0.10;;;19.10;99.90;;;;;;5017276;28;20038;-89
2021/09/05 08:14:51;;;;;;;1.88;1.38;;;19.30;99.90;;;;;;5001906;28;20132;-90
2021/09/05 08:17:17;;;;;;;0.20;0.20;;;19.50;99.90;;;;;;5000756;28;20026;-90
2021/09/05 08:19:42;;;;;;;0.10;0.10;;;19.70;99.90;;;;;;4998981;28;20080;-90
2021/09/05 08:22:08;;;;;;;0.10;0.10;;;19.60;99.90;;;;;;4999874;28;20034;-90
2021/09/05 08:24:34;;;;;;;0.10;0.10;;;19.80;99.90;;;;;;4999708;28;20031;-92
2021/09/05 08:26:59;;;;;;;0.65;0.57;;;19.90;99.90;;;;;;4998961;28;20026;-93
2021/09/05 08:29:25;;;;;;;0.10;0.10;;;20.20;99.90;;;;;;4998587;28;20395;-90
2021/09/05 08:31:51;;;;;;;0.10;0.10;;;20.50;98.90;;;;;;4998987;28;20030;-90
2021/09/05 08:34:17;;;;;;;0.38;0.38;;;20.60;94.50;;;;;;4999520;28;20393;-92
2021/09/05 08:36:43;;;;;;;0.20;0.20;;;20.60;93.10;;;;;;4999049;28;20506;-92
2021/09/05 08:39:09;;;;;;;0.10;0.10;;;20.70;93.10;;;;;;4998917;28;20030;-93
2021/09/05 08:41:35;;;;;;;0.10;0.10;;;20.90;92.00;;;;;;4998363;28;20088;-92
2021/09/05 08:44:01;;;;;;;0.15;0.15;;;21.00;89.80;;;;;;4999127;28;20447;-92
2021/09/05 08:46:26;;;;;;;0.00;0.00;;;21.10;88.90;;;;;;4999646;28;20037;-92
2021/09/05 08:48:54;;;;;;;2.53;0.75;;;21.20;88.10;;;;;;5000239;28;20018;-93
2021/09/05 08:51:19;;;;;;;0.20;0.20;;;21.40;87.10;;;;;;5005312;28;20034;-94
2021/09/05 08:53:46;;;;;;;0.08;0.08;;;21.40;87.70;;;;;;5002748;28;20026;-93
2021/09/05 08:56:12;;;;;;;0.10;0.10;;;21.50;88.00;;;;;;5002015;28;20024;-94
2021/09/05 08:58:38;;;;;;;0.13;0.13;;;21.90;90.10;;;;;;5001952;28;20017;-93
2021/09/05 09:01:19;;;;;;;0.20;0.20;;;22.20;89.30;;;;;;5002535;28;20136;-93
2021/09/05 09:03:46;;;;;;;0.70;0.70;;;22.40;88.10;;;;;;5001785;28;20029;-93
2021/09/05 09:06:19;;;;;;;1.65;0.68;;;22.40;88.90;;;;;;5000985;28;20030;-93
2021/09/05 09:08:55;;;;;;;0.00;0.00;;;22.60;87.50;;;;;;5001847;28;20029;-93
2021/09/05 09:11:20;;;;;;;0.45;0.45;;;22.60;86.70;;;;;;5000533;28;20026;-93
2021/09/05 09:13:55;;;;;;;0.75;0.75;;;22.90;85.90;;;;;;5000026;28;20443;-93
2021/09/05 09:16:21;;;;;;;0.10;0.10;;;22.90;84.90;;;;;;5000549;28;20113;-91
2021/09/05 09:18:47;;;;;;;0.10;0.10;;;23.00;84.50;;;;;;5004018;28;20049;-92
2021/09/05 09:21:15;;;;;;;2.03;1.00;;;23.40;85.10;;;;;;5001284;28;20032;-93
2021/09/05 09:23:41;;;;;;;0.10;0.10;;;23.80;81.50;;;;;;5005412;28;20029;-93
2021/09/05 09:26:12;;;;;;;0.00;0.00;;;24.00;80.50;;;;;;5007010;28;20034;-93
2021/09/05 09:28:44;;;;;;;0.10;0.10;;;24.20;78.10;;;;;;5004048;28;20227;-92
2021/09/05 09:31:19;;;;;;;;;;;24.50;77.10;;;;;;5002713;28;20088;-93
2021/09/05 09:33:50;;;;;;;0.30;0.20;;;24.70;73.70;;;;;;5003396;28;19960;-93
2021/09/05 09:36:25;;;;;;;;;;;24.80;70.40;;;;;;5001756;28;20090;-93
2021/09/05 09:39:01;;;;;;;0.20;0.20;;;25.00;71.20;;;;;;5001429;28;19909;-93
2021/09/05 09:41:32;;;;;;;1.45;0.98;;;25.10;66.80;;;;;;5002170;28;20045;-92
2021/09/05 09:44:02;;;;;;;0.00;0.00;;;25.00;66.20;;;;;;5008310;28;20033;-93
2021/09/05 09:46:37;;;;;;;0.20;0.20;;;25.40;66.40;;;;;;5010411;28;20181;-93
2021/09/05 09:49:07;;;;;;;0.08;0.08;;;25.70;63.80;;;;;;5007354;28;20022;-93
2021/09/05 09:51:35;;;;;;;0.50;0.50;;;26.00;63.00;;;;;;5004873;28;20030;-91
2021/09/05 09:54:01;;;;;;;1.45;0.40;;;25.90;62.10;;;;;;5020871;28;20053;-93
2021/09/05 09:56:27;;;;;;;0.32;0.32;;;26.30;61.10;;;;;;5003402;28;20048;-93
2021/09/05 09:59:03;;;;;;;0.00;0.00;;;26.70;59.20;;;;;;5008028;28;20538;-93
2021/09/05 10:01:32;;;;;;;0.50;0.50;;;26.90;57.40;;;;;;5006521;28;20030;-93
2021/09/05 10:04:00;;;;;;;2.55;2.38;;;26.50;56.50;;;;;;5002526;28;20022;-93
2021/09/05 10:06:28;;;;;;;3.00;0.57;;;26.40;59.20;;;;;;5001175;28;20060;-93
2021/09/05 10:09:06;;;;;;;0.45;0.45;;;26.60;57.60;;;;;;5000343;28;20026;-93
2021/09/05 10:11:36;;;;;;;0.00;0.00;;;26.30;56.20;;;;;;5004855;28;20049;-93
2021/09/05 10:22:00;;;;;;;0.00;0.00;;;27.00;55.80;;;;;;5034298;26;20461;-93
2021/09/05 10:24:53;;;;;;;0.00;0.00;;;27.40;55.40;;;;;;4994737;28;20034;-93
2021/09/05 10:27:44;;;;;;;0.75;0.32;;;27.50;54.50;;;;;;4997970;28;20037;-93
2021/09/05 10:30:11;;;;;;;0.13;0.13;;;27.80;54.90;;;;;;5002898;28;20014;-93
2021/09/05 10:33:02;;;;;;;0.10;0.10;;;27.60;53.80;;;;;;4998551;28;20034;-93
2021/09/05 10:35:54;;;;;;;0.15;0.10;;;27.80;53.30;;;;;;5010921;28;20022;-93
2021/09/05 10:38:35;;;;;;;0.15;0.15;;;27.80;54.20;;;;;;4983822;28;20026;-93
2021/09/05 10:41:14;;;;;;;9.13;7.32;;;28.30;54.90;;;;;;4983600;28;20026;-93
2021/09/05 10:44:01;;;;;;;5.53;2.90;;;28.70;54.70;;;;;;4983094;28;20022;-92
2021/09/05 10:46:55;;;;;;;17.25;6.32;;;28.60;55.30;;;;;;5001960;28;20022;-93
2021/09/05 10:49:41;;;;;;;5.63;0.57;;;28.60;54.10;;;;;;4986150;28;20022;-92
2021/09/05 10:52:44;;;;;;;4.18;1.98;;;28.50;53.80;;;;;;4986826;28;20060;-93
2021/09/05 10:59:24;;;;;;;0.52;0.52;;;28.90;51.90;;;;;;5019273;28;20092;-93
2021/09/05 11:02:13;;;;;;;1.65;1.35;;;29.30;50.30;;;;;;4990441;28;20017;-92
2021/09/05 13:21:39;;;;;;;0.00;0.00;;;25.60;56.90;;;;;;5003396;28;20402;-78
2021/09/05 13:24:05;;;;;;;0.00;0.00;;;25.50;55.20;;;;;;5005450;28;20027;-78
2021/09/05 13:26:31;;;;;;;0.65;0.65;;;25.50;55.70;;;;;;5005178;28;20026;-78
2021/09/05 13:28:57;;;;;;;0.38;0.38;;;25.40;56.50;;;;;;4988224;28;20438;-78
2021/09/05 13:31:32;;;;;;;0.00;0.00;;;25.40;55.30;;;;;;4971021;28;20022;-78
2021/09/05 13:33:58;;;;;;;0.20;0.20;;;25.30;56.00;;;;;;4988192;28;20037;-79
2021/09/05 13:36:28;;;;;;;0.05;0.05;;;25.30;57.30;;;;;;4970529;28;20031;-78
2021/09/05 13:38:54;;;;;;;0.25;0.25;;;25.30;56.40;;;;;;4987544;28;20030;-79
2021/09/05 13:41:20;;;;;;;0.57;0.57;;;25.50;55.20;;;;;;4987961;28;20052;-78
2021/09/05 13:43:45;;;;;;;0.00;0.00;;;25.30;55.30;;;;;;4972410;28;20502;-78
2021/09/05 13:46:12;;;;;;;0.10;0.10;;;25.10;54.50;;;;;;4971577;28;20422;-77
2021/09/05 13:48:38;;;;;;;2.97;2.28;;;25.20;55.50;;;;;;5005379;28;20102;-78
2021/09/05 13:51:06;;;;;;;0.20;0.20;;;25.00;55.70;;;;;;4987978;28;20124;-78
2021/09/05 13:53:32;;;;;;;0.10;0.10;;;25.10;55.20;;;;;;4995276;28;20533;-74
2021/09/05 13:55:58;;;;;;;0.30;0.30;;;25.10;55.00;;;;;;4980927;28;20030;-79
2021/09/05 13:58:24;;;;;;;0.75;0.35;;;24.80;57.60;;;;;;4984974;28;20044;-78
2021/09/05 14:00:50;;;;;;;0.03;0.03;;;24.60;57.00;;;;;;4986318;28;20557;-78
2021/09/05 14:03:15;;;;;;;0.00;0.00;;;24.60;56.40;;;;;;4985768;28;20040;-78
2021/09/05 14:05:41;;;;;;;0.10;0.10;;;24.50;56.00;;;;;;4999129;28;20032;-77
2021/09/05 14:08:07;;;;;;;0.13;0.13;;;24.60;56.60;;;;;;5001989;28;20022;-77
2021/09/05 14:10:33;;;;;;;0.10;0.10;;;24.60;56.00;;;;;;4985064;28;20382;-77
2021/09/05 14:12:58;;;;;;;0.10;0.10;;;24.80;55.50;;;;;;4996007;28;20033;-75
2021/09/05 14:15:24;;;;;;;0.10;0.10;;;24.80;54.40;;;;;;4959975;28;20027;-74
2021/09/05 14:17:50;;;;;;;0.00;0.00;;;24.80;55.00;;;;;;4976012;28;20049;-75
2021/09/05 14:20:16;;;;;;;0.00;0.00;;;24.80;54.00;;;;;;4993392;28;20506;-74
2021/09/05 14:22:41;;;;;;;0.10;0.10;;;24.70;54.70;;;;;;4993348;28;20041;-74
2021/09/05 14:25:08;;;;;;;0.08;0.08;;;24.90;54.10;;;;;;4976060;28;20026;-74
2021/09/05 14:27:59;;;;;;;0.00;0.00;;;25.00;54.70;;;;;;4993718;28;20390;-75
2021/09/05 14:56:20;;;;;;;0.00;0.00;;;24.90;53.50;;;;;;4975532;28;20026;-74
2021/09/05 14:58:57;;;;;;;0.13;0.13;;;25.00;54.90;;;;;;4992797;28;20032;-74
2021/09/05 15:01:27;;;;;;;0.50;0.40;;;24.70;55.90;;;;;;4975502;28;20026;-74
2021/09/05 15:04:04;;;;;;;0.10;0.10;;;24.60;55.30;;;;;;4975527;28;20073;-75
2021/09/05 15:12:03;;;;;;;0.22;0.22;;;24.50;56.80;;;;;;4993209;28;20050;-75
2021/09/05 15:14:28;;;;;;;0.05;0.05;;;24.50;56.80;;;;;;4992636;28;20018;-75
2021/09/05 15:16:54;;;;;;;0.95;0.95;;;24.50;57.80;;;;;;4992629;28;20029;-75
2021/09/05 15:19:20;;;;;;;0.00;0.00;;;24.30;58.00;;;;;;4992315;28;20057;-74
2021/09/05 15:24:11;;;;;;;0.45;0.38;;;24.10;57.90;;;;;;4975111;28;20080;-75
2021/09/05 15:26:37;;;;;;;0.10;0.10;;;24.20;57.10;;;;;;4992603;28;20114;-75
2021/09/05 15:50:43;;;;;;;0.00;0.00;;;23.90;56.50;;;;;;4996105;28;20025;-77
2021/09/05 15:55:42;;;;;;;0.38;0.38;;;23.80;58.10;;;;;;4998648;28;20030;-77
2021/09/05 15:58:12;;;;;;;0.00;0.00;;;23.70;57.60;;;;;;4980963;28;20026;-77
2021/09/05 16:00:43;;;;;;;0.00;0.00;;;23.80;57.90;;;;;;4998347;28;20026;-77
2021/09/05 16:05:59;;;;;;;0.32;0.32;;;23.70;59.50;;;;;;4996873;28;20078;-77
2021/09/05 16:16:41;;;;;;;0.00;0.00;;;23.10;59.30;;;;;;4995959;28;20022;-73
2021/09/05 16:19:06;;;;;;;0.00;0.00;;;23.00;60.40;;;;;;4978260;28;20026;-73
2021/09/05 16:21:32;;;;;;;6.57;0.32;;;23.20;59.50;;;;;;4995695;28;20100;-73
2021/09/05 16:23:58;;;;;;;0.00;0.00;;;23.20;59.40;;;;;;4995649;28;20034;-73
2021/09/05 16:26:24;;;;;;;0.00;0.00;;;23.30;59.50;;;;;;4995667;28;20077;-73
2021/09/05 16:28:53;;;;;;;0.40;0.40;;;23.40;60.20;;;;;;4977849;28;20033;-73